createdAt,value
2023-01-22T00:01:15.650Z,15.90
2023-01-22T00:03:46.584Z,17.53
2023-01-22T00:06:15.076Z,17.33
2023-01-22T00:08:43.248Z,16.70
2023-01-22T00:11:12.187Z,16.20
2023-01-22T00:13:40.234Z,17.50
2023-01-22T00:16:09.219Z,16.63
2023-01-22T00:18:38.493Z,14.93
2023-01-22T00:21:06.739Z,17.37
2023-01-22T00:23:35.049Z,16.23
2023-01-22T00:26:03.119Z,15.87
2023-01-22T00:28:31.803Z,15.37
2023-01-22T00:31:00.471Z,15.70
2023-01-22T00:33:28.840Z,15.00
2023-01-22T00:35:58.500Z,15.60
2023-01-22T00:38:26.546Z,15.80
2023-01-22T00:40:54.481Z,15.37
2023-01-22T00:43:22.415Z,15.47
2023-01-22T00:45:50.447Z,14.53
2023-01-22T00:48:18.367Z,15.43
2023-01-22T00:50:46.469Z,15.47
2023-01-22T00:53:15.817Z,14.93
2023-01-22T00:55:52.519Z,14.70
2023-01-22T00:58:20.767Z,14.90
2023-01-22T01:00:49.642Z,16.00
2023-01-22T01:03:31.591Z,13.57
2023-01-22T01:06:01.644Z,15.27
2023-01-22T01:08:33.164Z,15.20
2023-01-22T01:11:03.163Z,14.80
2023-01-22T01:13:33.808Z,13.67
2023-01-22T01:16:04.108Z,13.53
2023-01-22T01:18:32.883Z,14.37
2023-01-22T01:21:01.428Z,14.73
2023-01-22T01:23:30.701Z,15.33
2023-01-22T01:25:58.756Z,14.90
2023-01-22T01:28:28.757Z,14.10
2023-01-22T01:30:57.057Z,14.63
2023-01-22T01:33:25.098Z,14.27
2023-01-22T01:36:00.492Z,14.47
2023-01-22T01:38:32.568Z,14.70
2023-01-22T01:41:00.865Z,13.77
2023-01-22T01:43:29.079Z,14.67
2023-01-22T01:45:58.743Z,13.53
2023-01-22T01:48:31.238Z,15.80
2023-01-22T01:51:04.736Z,14.30
2023-01-22T01:53:34.526Z,14.00
2023-01-22T01:56:04.524Z,14.53
2023-01-22T01:58:35.298Z,15.30
2023-01-22T02:01:11.413Z,15.47
2023-01-22T02:03:41.246Z,13.87
2023-01-22T02:06:11.713Z,14.00
2023-01-22T02:08:42.099Z,16.63
2023-01-22T02:11:11.391Z,16.83
2023-01-22T02:13:43.182Z,15.47
2023-01-22T02:16:12.018Z,15.80
2023-01-22T02:18:40.506Z,15.37
2023-01-22T02:21:32.578Z,14.93
2023-01-22T02:24:01.052Z,14.87
2023-01-22T02:26:29.577Z,15.00
2023-01-22T02:28:57.776Z,13.83
2023-01-22T02:31:29.238Z,14.60
2023-01-22T02:33:57.667Z,14.70
2023-01-22T02:36:28.643Z,15.27
2023-01-22T02:38:58.047Z,15.10
2023-01-22T02:41:26.218Z,15.80
2023-01-22T02:43:54.426Z,16.43
2023-01-22T02:46:25.886Z,14.97
2023-01-22T02:48:54.284Z,15.20
2023-01-22T02:51:23.074Z,15.00
2023-01-22T02:53:51.345Z,15.93
2023-01-22T02:56:21.983Z,15.67
2023-01-22T02:58:50.135Z,14.60
2023-01-22T03:01:20.613Z,15.47
2023-01-22T03:03:52.058Z,15.03
2023-01-22T03:06:22.834Z,15.53
2023-01-22T03:08:51.660Z,14.83
2023-01-22T03:11:20.996Z,14.00
2023-01-22T03:14:08.850Z,14.73
2023-01-22T03:16:54.390Z,13.83
2023-01-22T03:19:39.882Z,13.40
2023-01-22T03:22:14.184Z,13.50
2023-01-22T03:24:42.646Z,14.00
2023-01-22T03:27:11.978Z,13.30
2023-01-22T03:29:40.044Z,15.37
2023-01-22T03:32:08.969Z,13.87
2023-01-22T03:34:38.566Z,14.50
2023-01-22T03:37:07.403Z,14.13
2023-01-22T03:39:36.697Z,15.97
2023-01-22T03:42:05.516Z,16.40
2023-01-22T03:44:34.789Z,18.87
2023-01-22T03:47:02.871Z,25.40
2023-01-22T03:49:30.862Z,25.70
2023-01-22T03:51:59.000Z,24.20
2023-01-22T03:54:27.487Z,15.50
2023-01-22T03:56:58.455Z,16.60
2023-01-22T03:59:34.246Z,15.40
2023-01-22T04:02:02.173Z,15.43
2023-01-22T04:04:31.991Z,13.83
2023-01-22T04:07:00.457Z,16.17
2023-01-22T04:09:28.372Z,16.00
2023-01-22T04:11:58.038Z,17.23
2023-01-22T04:14:27.344Z,16.30
2023-01-22T04:17:00.192Z,15.03
2023-01-22T04:19:47.297Z,14.53
2023-01-22T04:22:27.518Z,14.37
2023-01-22T04:24:57.135Z,14.70
2023-01-22T04:27:25.156Z,16.00
2023-01-22T04:29:55.572Z,15.23
2023-01-22T04:32:26.229Z,14.90
2023-01-22T04:35:07.675Z,14.67
2023-01-22T04:37:45.292Z,15.57
2023-01-22T04:40:14.263Z,17.43
2023-01-22T04:42:44.110Z,15.20
2023-01-22T04:45:12.669Z,16.10
2023-01-22T04:47:47.184Z,14.17
2023-01-22T04:50:20.534Z,15.90
2023-01-22T04:52:50.969Z,16.17
2023-01-22T04:55:19.154Z,17.17
2023-01-22T04:58:06.333Z,16.43
2023-01-22T05:00:34.651Z,14.30
2023-01-22T05:03:05.895Z,14.67
2023-01-22T05:05:35.203Z,14.20
2023-01-22T05:08:03.560Z,14.93
2023-01-22T05:10:33.779Z,15.53
2023-01-22T05:13:04.588Z,13.23
2023-01-22T05:15:33.299Z,14.53
2023-01-22T05:18:08.175Z,14.57
2023-01-22T05:20:38.151Z,14.90
2023-01-22T05:23:06.641Z,14.77
2023-01-22T05:25:34.665Z,13.23
2023-01-22T05:28:03.603Z,14.47
2023-01-22T05:30:49.671Z,14.47
2023-01-22T05:33:35.532Z,13.83
2023-01-22T05:36:05.126Z,14.47
2023-01-22T05:38:34.974Z,14.23
2023-01-22T05:41:03.463Z,13.60
2023-01-22T05:43:38.143Z,14.00
2023-01-22T05:46:07.600Z,13.77
2023-01-22T05:48:55.689Z,13.97
2023-01-22T05:51:27.026Z,13.83
2023-01-22T05:53:55.013Z,15.70
2023-01-22T05:56:28.150Z,14.03
2023-01-22T05:58:56.225Z,14.00
2023-01-22T06:01:24.478Z,14.33
2023-01-22T06:03:55.184Z,13.53
2023-01-22T06:06:25.742Z,14.80
2023-01-22T06:08:53.876Z,13.50
2023-01-22T06:11:23.548Z,13.97
2023-01-22T06:13:51.665Z,13.57
2023-01-22T06:16:23.907Z,13.73
2023-01-22T06:19:05.294Z,13.10
2023-01-22T06:21:43.595Z,12.80
2023-01-22T06:24:12.296Z,13.47
2023-01-22T06:26:40.236Z,13.33
2023-01-22T06:29:10.934Z,13.63
2023-01-22T06:31:40.895Z,12.73
2023-01-22T06:34:11.409Z,12.90
2023-01-22T06:36:40.941Z,12.67
2023-01-22T06:39:10.802Z,12.40
2023-01-22T06:41:53.943Z,12.50
2023-01-22T06:44:21.937Z,12.60
2023-01-22T06:46:51.113Z,12.87
2023-01-22T06:49:24.094Z,13.30
2023-01-22T06:51:52.082Z,13.00
2023-01-22T06:54:20.242Z,13.47
2023-01-22T06:56:48.154Z,13.20
2023-01-22T06:59:17.508Z,12.70
2023-01-22T07:01:45.522Z,14.10
2023-01-22T07:04:13.501Z,13.20
2023-01-22T07:06:42.744Z,12.73
2023-01-22T07:09:10.661Z,14.50
2023-01-22T07:11:38.542Z,14.30
2023-01-22T07:14:06.411Z,14.30
2023-01-22T07:16:34.370Z,13.90
2023-01-22T07:19:02.318Z,15.20
2023-01-22T07:21:30.289Z,15.00
2023-01-22T07:23:59.723Z,14.27
2023-01-22T07:26:27.644Z,14.50
2023-01-22T07:28:55.630Z,14.47
2023-01-22T07:31:23.599Z,14.33
2023-01-22T07:33:51.496Z,13.53
2023-01-22T07:36:19.401Z,14.87
2023-01-22T07:38:47.326Z,14.67
2023-01-22T07:41:25.401Z,15.23
2023-01-22T07:43:56.104Z,15.13
2023-01-22T07:46:24.262Z,14.53
2023-01-22T07:48:52.172Z,15.67
2023-01-22T07:51:20.214Z,15.20
2023-01-22T07:53:48.245Z,16.03
2023-01-22T07:56:19.086Z,14.93
2023-01-22T07:58:47.069Z,14.60
2023-01-22T08:01:15.705Z,14.87
2023-01-22T08:03:43.697Z,15.67
2023-01-22T08:06:12.815Z,14.63
2023-01-22T08:08:42.519Z,15.70
2023-01-22T08:11:10.781Z,15.30
2023-01-22T08:13:40.164Z,15.17
2023-01-22T08:16:09.348Z,16.83
2023-01-22T08:18:38.300Z,17.43
2023-01-22T08:21:06.606Z,16.73
2023-01-22T08:23:34.533Z,15.70
2023-01-22T08:26:03.920Z,16.30
2023-01-22T08:28:32.612Z,15.63
2023-01-22T08:31:03.141Z,16.20
2023-01-22T08:33:33.991Z,17.37
2023-01-22T08:36:01.957Z,16.90
2023-01-22T08:38:29.914Z,15.73
2023-01-22T08:40:57.862Z,15.90
2023-01-22T08:43:25.846Z,14.93
2023-01-22T08:45:53.941Z,16.87
2023-01-22T08:48:23.222Z,16.27
2023-01-22T08:50:51.387Z,15.50
2023-01-22T08:53:19.286Z,16.83
2023-01-22T08:55:50.878Z,16.77
2023-01-22T08:58:20.401Z,16.97
2023-01-22T09:00:48.591Z,16.27
2023-01-22T09:03:16.724Z,16.27
2023-01-22T09:05:46.029Z,16.93
2023-01-22T09:08:14.175Z,17.27
2023-01-22T09:10:43.223Z,17.93
2023-01-22T09:13:11.564Z,16.80
2023-01-22T09:15:41.013Z,18.20
2023-01-22T09:18:09.127Z,16.50
2023-01-22T09:20:37.042Z,18.83
2023-01-22T09:23:07.037Z,16.90
2023-01-22T09:25:34.939Z,17.57
2023-01-22T09:28:04.996Z,18.03
2023-01-22T09:30:33.227Z,18.07
2023-01-22T09:33:01.265Z,18.97
2023-01-22T09:35:29.785Z,17.23
2023-01-22T09:37:57.957Z,16.73
2023-01-22T09:40:31.230Z,18.13
2023-01-22T09:43:05.119Z,17.73
2023-01-22T09:45:38.460Z,17.07
2023-01-22T09:48:10.722Z,17.37
2023-01-22T09:50:39.217Z,16.67
2023-01-22T09:53:12.755Z,16.23
2023-01-22T09:55:47.012Z,17.23
2023-01-22T09:58:17.121Z,17.07
2023-01-22T10:00:49.761Z,17.63
2023-01-22T10:03:24.203Z,17.77
2023-01-22T10:05:56.337Z,17.27
2023-01-22T10:08:27.227Z,17.60
2023-01-22T10:10:57.007Z,18.57
2023-01-22T10:13:26.242Z,18.50
2023-01-22T10:15:55.902Z,16.60
2023-01-22T10:18:32.190Z,17.80
2023-01-22T10:21:04.411Z,17.67
2023-01-22T10:23:34.607Z,18.10
2023-01-22T10:26:14.814Z,17.27
2023-01-22T10:28:46.446Z,18.03
2023-01-22T10:31:24.262Z,16.90
2023-01-22T10:33:58.584Z,18.90
2023-01-22T10:36:27.059Z,17.47
2023-01-22T10:39:07.883Z,18.90
2023-01-22T10:41:37.238Z,17.63
2023-01-22T10:44:18.821Z,19.97
2023-01-22T10:46:49.172Z,19.60
2023-01-22T10:49:20.194Z,19.90
2023-01-22T10:51:53.716Z,21.67
2023-01-22T10:54:26.067Z,23.53
2023-01-22T10:57:06.357Z,24.87
2023-01-22T10:59:34.719Z,18.53
2023-01-22T11:02:04.555Z,19.00
2023-01-22T11:04:34.124Z,19.00
2023-01-22T11:07:07.646Z,18.80
2023-01-22T11:09:41.713Z,17.83
2023-01-22T11:12:18.793Z,17.50
2023-01-22T11:14:49.184Z,19.67
2023-01-22T11:17:21.161Z,17.13
2023-01-22T11:19:57.954Z,17.20
2023-01-22T11:22:30.055Z,17.37
2023-01-22T11:24:58.006Z,17.33
2023-01-22T11:27:49.585Z,18.10
2023-01-22T11:30:44.641Z,17.27
2023-01-22T11:33:27.717Z,19.53
2023-01-22T11:36:01.101Z,17.67
2023-01-22T11:38:39.446Z,17.43
2023-01-22T11:41:20.296Z,18.97
2023-01-22T11:44:05.515Z,17.00
2023-01-22T11:46:47.829Z,17.33
2023-01-22T11:49:26.021Z,19.20
2023-01-22T11:52:05.078Z,17.77
2023-01-22T11:54:49.172Z,17.10
2023-01-22T11:57:21.403Z,17.20
2023-01-22T12:00:18.531Z,17.17
2023-01-22T12:03:37.802Z,18.67
2023-01-22T12:06:19.008Z,17.00
2023-01-22T12:09:00.460Z,17.00
2023-01-22T12:11:39.090Z,16.60
2023-01-22T12:14:27.087Z,15.10
2023-01-22T12:17:04.915Z,18.13
2023-01-22T12:19:54.994Z,16.80
2023-01-22T12:22:29.945Z,16.57
2023-01-22T12:25:02.501Z,16.43
2023-01-22T12:27:35.733Z,16.20
2023-01-22T12:30:18.760Z,17.80
2023-01-22T12:32:54.308Z,15.47
2023-01-22T12:35:25.818Z,16.47
2023-01-22T12:38:03.582Z,15.83
2023-01-22T12:40:58.687Z,17.43
2023-01-22T12:43:34.097Z,15.70
2023-01-22T12:46:10.252Z,14.47
2023-01-22T12:48:49.612Z,14.07
2023-01-22T12:51:27.651Z,14.17
2023-01-22T12:53:55.568Z,14.60
2023-01-22T12:56:31.540Z,15.17
2023-01-22T12:59:00.128Z,15.23
2023-01-22T13:01:34.502Z,15.23
2023-01-22T13:04:05.865Z,15.27
2023-01-22T13:06:36.541Z,14.83
2023-01-22T13:09:05.827Z,14.43
2023-01-22T13:11:35.883Z,14.77
2023-01-22T13:14:16.106Z,14.17
2023-01-22T13:16:52.862Z,13.70
2023-01-22T13:19:24.188Z,14.23
2023-01-22T13:21:52.800Z,14.83
2023-01-22T13:24:22.489Z,16.83
2023-01-22T13:26:55.283Z,15.00
2023-01-22T13:29:27.289Z,16.17
2023-01-22T13:31:57.131Z,14.57
2023-01-22T13:34:27.401Z,14.20
2023-01-22T13:36:55.775Z,13.63
2023-01-22T13:39:27.704Z,14.43
2023-01-22T13:41:57.908Z,16.27
2023-01-22T13:44:28.360Z,17.03
2023-01-22T13:46:57.855Z,15.47
2023-01-22T13:49:29.504Z,13.77
2023-01-22T13:52:00.429Z,13.57
2023-01-22T13:54:31.622Z,13.40
2023-01-22T13:56:59.802Z,14.20
2023-01-22T13:59:34.915Z,14.20
2023-01-22T14:02:19.785Z,14.37
2023-01-22T14:04:49.840Z,14.77
2023-01-22T14:07:25.541Z,14.53
2023-01-22T14:09:54.119Z,13.73
2023-01-22T14:12:24.303Z,13.30
2023-01-22T14:14:52.643Z,14.27
2023-01-22T14:17:26.008Z,13.60
2023-01-22T14:19:55.564Z,13.10
2023-01-22T14:22:24.111Z,13.97
2023-01-22T14:24:52.946Z,15.23
2023-01-22T14:27:23.037Z,14.87
2023-01-22T14:29:51.607Z,13.30
2023-01-22T14:32:19.506Z,12.83
2023-01-22T14:34:47.562Z,13.13
2023-01-22T14:37:17.671Z,15.70
2023-01-22T14:39:45.695Z,17.83
2023-01-22T14:42:13.712Z,14.57
2023-01-22T14:44:41.640Z,14.67
2023-01-22T14:47:09.637Z,14.30
2023-01-22T14:49:37.704Z,15.13
2023-01-22T14:52:05.870Z,13.43
2023-01-22T14:54:35.134Z,15.93
2023-01-22T14:57:04.194Z,14.63
2023-01-22T14:59:32.279Z,14.00
2023-01-22T15:02:00.208Z,15.33
2023-01-22T15:04:28.303Z,14.03
2023-01-22T15:06:56.273Z,13.57
2023-01-22T15:09:24.204Z,13.50
2023-01-22T15:11:53.511Z,15.93
2023-01-22T15:14:21.714Z,16.93
2023-01-22T15:16:49.892Z,16.77
2023-01-22T15:19:18.603Z,16.90
2023-01-22T15:21:48.683Z,15.60
2023-01-22T15:24:16.639Z,16.20
2023-01-22T15:26:44.599Z,18.47
2023-01-22T15:29:15.146Z,18.20
2023-01-22T15:31:43.456Z,16.53
2023-01-22T15:34:11.701Z,14.50
2023-01-22T15:36:40.690Z,16.40
2023-01-22T15:39:09.120Z,16.53
2023-01-22T15:41:38.218Z,15.50
2023-01-22T15:44:07.277Z,14.33
2023-01-22T15:46:38.513Z,13.90
2023-01-22T15:49:08.366Z,14.13
2023-01-22T15:51:37.585Z,13.80
2023-01-22T15:54:07.665Z,14.33
2023-01-22T15:56:37.124Z,14.87
2023-01-22T15:59:05.779Z,13.47
2023-01-22T16:01:34.236Z,14.00
2023-01-22T16:04:04.380Z,14.73
2023-01-22T16:06:34.232Z,12.43
2023-01-22T16:09:03.790Z,13.53
2023-01-22T16:11:32.958Z,14.07
2023-01-22T16:14:01.482Z,14.43
2023-01-22T16:16:31.569Z,15.07
2023-01-22T16:19:01.009Z,15.00
2023-01-22T16:21:30.399Z,14.97
2023-01-22T16:24:00.536Z,13.90
2023-01-22T16:26:31.217Z,15.70
2023-01-22T16:29:01.042Z,14.03
2023-01-22T16:31:31.797Z,14.73
2023-01-22T16:34:01.426Z,15.33
2023-01-22T16:36:32.709Z,13.90
2023-01-22T16:39:00.938Z,14.77
2023-01-22T16:41:30.814Z,14.67
2023-01-22T16:44:02.046Z,15.57
2023-01-22T16:46:32.510Z,16.40
2023-01-22T16:49:02.519Z,15.93
2023-01-22T16:51:35.563Z,13.90
2023-01-22T16:54:04.268Z,14.57
2023-01-22T16:56:33.318Z,13.83
2023-01-22T16:59:01.545Z,14.70
2023-01-22T17:01:30.775Z,13.73
2023-01-22T17:03:58.903Z,13.10
2023-01-22T17:06:29.160Z,14.73
2023-01-22T17:08:58.712Z,14.30
2023-01-22T17:11:26.818Z,14.47
2023-01-22T17:13:55.249Z,14.43
2023-01-22T17:16:23.359Z,14.10
2023-01-22T17:18:51.368Z,14.97
2023-01-22T17:21:20.348Z,14.93
2023-01-22T17:23:48.650Z,13.63
2023-01-22T17:26:18.243Z,14.43
2023-01-22T17:28:47.092Z,13.57
2023-01-22T17:31:17.799Z,13.07
2023-01-22T17:33:46.828Z,14.20
2023-01-22T17:36:16.582Z,18.87
2023-01-22T17:38:44.687Z,14.67
2023-01-22T17:41:15.838Z,14.70
2023-01-22T17:43:46.813Z,15.77
2023-01-22T17:46:18.231Z,14.73
2023-01-22T17:48:47.598Z,14.67
2023-01-22T17:51:18.388Z,14.07
2023-01-22T17:53:47.800Z,13.87
2023-01-22T17:56:18.368Z,14.73
2023-01-22T17:58:50.275Z,14.00
2023-01-22T18:01:20.873Z,15.57
2023-01-22T18:03:49.094Z,13.80
2023-01-22T18:06:17.760Z,14.87
2023-01-22T18:08:45.700Z,16.40
2023-01-22T18:11:15.987Z,16.63
2023-01-22T18:13:45.095Z,17.47
2023-01-22T18:16:16.603Z,17.97
2023-01-22T18:18:47.034Z,16.13
2023-01-22T18:21:19.166Z,15.20
2023-01-22T18:23:47.955Z,14.30
2023-01-22T18:26:22.579Z,14.80
2023-01-22T18:28:51.077Z,15.63
2023-01-22T18:31:22.749Z,17.13
2023-01-22T18:33:51.556Z,17.60
2023-01-22T18:36:22.451Z,17.33
2023-01-22T18:38:51.151Z,15.57
2023-01-22T18:41:23.859Z,17.57
2023-01-22T18:43:55.494Z,16.70
2023-01-22T18:46:28.016Z,16.00
2023-01-22T18:48:57.528Z,14.37
2023-01-22T18:51:26.825Z,15.60
2023-01-22T18:53:55.253Z,15.10
2023-01-22T18:56:25.694Z,15.97
2023-01-22T18:58:55.102Z,16.10
2023-01-22T19:01:26.321Z,15.77
2023-01-22T19:03:55.866Z,17.40
2023-01-22T19:06:27.184Z,16.97
2023-01-22T19:08:58.664Z,17.37
2023-01-22T19:11:27.044Z,16.23
2023-01-22T19:13:56.686Z,15.30
2023-01-22T19:16:26.323Z,15.30
2023-01-22T19:18:58.689Z,17.30
2023-01-22T19:21:28.198Z,16.47
2023-01-22T19:23:58.557Z,15.83
2023-01-22T19:26:28.747Z,17.03
2023-01-22T19:28:58.686Z,22.67
2023-01-22T19:31:30.721Z,22.87
2023-01-22T19:33:59.533Z,16.60
2023-01-22T19:36:29.752Z,15.13
2023-01-22T19:38:58.765Z,14.60
2023-01-22T19:41:28.816Z,14.47
2023-01-22T19:44:15.763Z,14.33
2023-01-22T19:46:45.371Z,15.37
2023-01-22T19:49:13.971Z,15.30
2023-01-22T19:51:42.986Z,14.57
2023-01-22T19:54:12.266Z,15.67
2023-01-22T19:56:43.281Z,15.63
2023-01-22T19:59:15.088Z,17.83
2023-01-22T20:01:45.808Z,16.47
2023-01-22T20:04:20.698Z,14.80
2023-01-22T20:06:51.093Z,21.10
2023-01-22T20:09:21.866Z,20.07
2023-01-22T20:11:53.656Z,19.40
2023-01-22T20:14:22.787Z,18.03
2023-01-22T20:16:52.479Z,16.87
2023-01-22T20:19:20.696Z,16.33
2023-01-22T20:21:49.047Z,18.97
2023-01-22T20:24:17.137Z,16.67
2023-01-22T20:26:45.143Z,16.30
2023-01-22T20:29:13.690Z,18.57
2023-01-22T20:31:41.638Z,18.17
2023-01-22T20:34:11.133Z,16.33
2023-01-22T20:36:39.352Z,16.43
2023-01-22T20:39:07.517Z,21.03
2023-01-22T20:41:35.491Z,22.53
2023-01-22T20:44:03.623Z,16.60
2023-01-22T20:46:31.638Z,14.47
2023-01-22T20:48:59.841Z,14.83
2023-01-22T20:51:30.431Z,15.03
2023-01-22T20:53:59.259Z,15.00
2023-01-22T20:56:30.350Z,15.30
2023-01-22T20:58:59.581Z,24.50
2023-01-22T21:01:28.387Z,23.70
2023-01-22T21:03:57.403Z,15.57
2023-01-22T21:06:27.415Z,15.23
2023-01-22T21:08:58.264Z,14.80
2023-01-22T21:11:28.246Z,15.40
2023-01-22T21:13:57.737Z,15.93
2023-01-22T21:16:27.812Z,14.27
2023-01-22T21:18:57.459Z,13.87
2023-01-22T21:21:26.079Z,14.00
2023-01-22T21:23:56.781Z,14.40
2023-01-22T21:26:26.743Z,14.30
2023-01-22T21:28:56.227Z,15.37
2023-01-22T21:31:25.364Z,14.67
2023-01-22T21:34:02.242Z,14.47
2023-01-22T21:36:31.714Z,13.57
2023-01-22T21:39:01.829Z,14.87
2023-01-22T21:41:29.819Z,14.47
2023-01-22T21:44:15.338Z,15.70
2023-01-22T21:46:45.103Z,15.33
2023-01-22T21:49:17.736Z,13.70
2023-01-22T21:51:47.966Z,14.67
2023-01-22T21:54:20.605Z,14.43
2023-01-22T21:56:48.587Z,13.80
2023-01-22T21:59:16.911Z,13.43
2023-01-22T22:01:45.273Z,14.43
2023-01-22T22:04:15.039Z,14.20
2023-01-22T22:06:43.603Z,14.57
2023-01-22T22:09:14.275Z,14.67
2023-01-22T22:11:43.821Z,14.07
2023-01-22T22:14:13.145Z,16.17
2023-01-22T22:16:41.099Z,14.40
2023-01-22T22:19:09.472Z,15.50
2023-01-22T22:21:38.405Z,15.67
2023-01-22T22:24:07.689Z,14.57
2023-01-22T22:26:35.921Z,14.97
2023-01-22T22:29:06.643Z,15.07
2023-01-22T22:31:34.886Z,14.97
2023-01-22T22:34:03.120Z,14.77
2023-01-22T22:36:32.305Z,20.50
2023-01-22T22:39:01.541Z,18.43
2023-01-22T22:41:31.329Z,19.20
2023-01-22T22:43:59.217Z,21.10
2023-01-22T22:46:30.117Z,18.53
2023-01-22T22:48:59.479Z,17.00
2023-01-22T22:51:30.085Z,15.43
2023-01-22T22:54:00.008Z,14.80
2023-01-22T22:56:29.119Z,15.17
2023-01-22T22:58:58.392Z,15.23
2023-01-22T23:01:29.034Z,15.17
2023-01-22T23:03:57.114Z,15.13
2023-01-22T23:06:27.209Z,13.57
2023-01-22T23:09:09.812Z,12.90
2023-01-22T23:11:37.785Z,13.83
2023-01-22T23:14:06.205Z,14.33
2023-01-22T23:16:38.564Z,14.40
2023-01-22T23:19:10.225Z,13.20
2023-01-22T23:21:41.437Z,14.07
2023-01-22T23:24:10.120Z,13.63
2023-01-22T23:26:38.071Z,14.53
2023-01-22T23:29:08.263Z,14.00
2023-01-22T23:31:39.347Z,14.77
2023-01-22T23:34:11.746Z,13.47
2023-01-22T23:36:40.985Z,14.67
2023-01-22T23:39:08.923Z,14.57
2023-01-22T23:41:37.039Z,15.17
2023-01-22T23:44:05.227Z,14.00
2023-01-22T23:46:34.981Z,13.73
2023-01-22T23:49:05.754Z,14.20
2023-01-22T23:51:33.847Z,14.83
2023-01-22T23:54:01.834Z,16.87
2023-01-22T23:56:31.618Z,18.53
2023-01-22T23:59:00.291Z,16.27
